Time;durP1;ratioP1;P1;durP2;ratioP2;P2;SDS_P1;SDS_P2;PMS_P1;PMS_P2;Temp;Humidity;BMP_temperature;BMP_pressure;BME280_temperature;BME280_humidity;BME280_pressure;Samples;Min_cycle;Max_cycle;Signal;HPM_P1;HPM_P2
2023/09/25 00:00:51;;;;;;;15.55;6.72;;;;;;;21.34;63.16;95037.47;5070455;28;20035;-81
2023/09/25 00:03:17;;;;;;;14.65;7.03;;;;;;;21.34;62.90;95049.41;5086010;28;20499;-82
2023/09/25 00:05:42;;;;;;;13.50;6.25;;;;;;;21.30;62.95;95031.34;5086999;28;20466;-81
2023/09/25 00:08:08;;;;;;;13.38;6.38;;;;;;;21.31;63.16;95042.03;5070225;28;20024;-82
2023/09/25 00:10:34;;;;;;;13.65;6.78;;;;;;;21.25;63.07;95044.03;5085903;28;20107;-82
2023/09/25 00:13:01;;;;;;;11.43;6.35;;;;;;;21.23;63.61;95046.56;5088931;28;20028;-82
2023/09/25 00:15:26;;;;;;;12.05;6.65;;;;;;;21.21;63.36;95033.06;5084571;28;20517;-80
2023/09/25 00:17:53;;;;;;;11.20;6.30;;;;;;;21.18;63.22;95036.13;5070235;28;20032;-82
2023/09/25 00:20:24;;;;;;;11.70;6.75;;;;;;;21.13;63.36;95040.44;5069864;28;20506;-83
2023/09/25 00:22:51;;;;;;;15.23;6.30;;;;;;;21.13;63.51;95042.47;5070843;28;20517;-81
2023/09/25 00:25:20;;;;;;;13.48;6.38;;;;;;;21.09;63.51;95039.91;5088267;28;20105;-82
2023/09/25 00:27:45;;;;;;;11.65;6.63;;;;;;;21.07;63.14;95036.84;5086032;28;20059;-81
2023/09/25 00:30:14;;;;;;;10.68;5.97;;;;;;;21.03;63.19;95033.53;5086964;28;20031;-82
2023/09/25 00:32:39;;;;;;;13.45;6.03;;;;;;;21.04;63.32;95040.66;5085534;28;20057;-82
2023/09/25 00:35:10;;;;;;;13.00;6.07;;;;;;;20.94;63.44;95030.97;5069753;28;20025;-82
2023/09/25 00:37:36;;;;;;;9.93;6.00;;;;;;;20.92;62.86;95034.25;5086261;28;20026;-81
2023/09/25 00:40:13;;;;;;;10.52;5.70;;;;;;;20.88;63.18;95036.56;5086457;28;20031;-82
2023/09/25 00:42:41;;;;;;;13.00;6.25;;;;;;;20.83;62.94;95028.91;5071504;28;20024;-82
2023/09/25 00:45:08;;;;;;;11.25;5.95;;;;;;;20.81;62.77;95025.84;5068619;28;20110;-82
2023/09/25 00:47:34;;;;;;;9.10;5.55;;;;;;;20.78;62.54;95035.25;5070199;28;20054;-82
2023/09/25 00:49:59;;;;;;;10.82;5.45;;;;;;;20.75;62.64;95036.22;5068600;28;20445;-82
2023/09/25 00:52:25;;;;;;;11.75;5.63;;;;;;;20.75;62.65;95041.06;5085460;28;20085;-82
2023/09/25 00:54:51;;;;;;;11.48;5.05;;;;;;;20.70;61.24;95031.38;5085816;28;20039;-82
2023/09/25 00:57:16;;;;;;;9.60;4.35;;;;;;;20.69;60.76;95049.41;5069124;28;20030;-82
2023/09/25 00:59:42;;;;;;;6.65;4.75;;;;;;;20.68;60.24;95039.50;5085997;28;20031;-82
2023/09/25 01:02:07;;;;;;;8.95;4.93;;;;;;;20.68;59.65;95043.06;5085288;28;20024;-82
2023/09/25 01:04:34;;;;;;;7.80;4.43;;;;;;;20.72;59.49;95034.44;5086646;28;20031;-82
2023/09/25 01:07:00;;;;;;;8.50;4.93;;;;;;;20.73;58.92;95030.38;5085014;28;20035;-82
2023/09/25 01:09:26;;;;;;;8.13;3.90;;;;;;;20.80;58.81;95040.31;5069539;28;20028;-82
2023/09/25 01:11:51;;;;;;;13.15;4.60;;;;;;;20.78;58.27;95028.88;5068628;28;20024;-82
2023/09/25 01:14:17;;;;;;;6.05;3.47;;;;;;;20.81;58.32;95025.84;5068978;28;20111;-82
2023/09/25 01:16:42;;;;;;;8.45;4.30;;;;;;;20.81;58.22;95036.25;5086727;28;20518;-82
2023/09/25 01:19:08;;;;;;;10.25;3.67;;;;;;;20.81;58.13;95036.25;5068399;28;20073;-81
2023/09/25 01:21:33;;;;;;;5.95;3.75;;;;;;;20.80;58.32;95038.28;5087072;28;20024;-83
2023/09/25 01:23:59;;;;;;;12.57;4.20;;;;;;;20.79;58.04;95036.00;5068034;28;20535;-82
2023/09/25 01:26:24;;;;;;;9.73;4.22;;;;;;;20.79;57.85;95038.78;5069105;28;20028;-83
2023/09/25 01:28:50;;;;;;;11.13;4.75;;;;;;;20.83;58.03;95033.75;5084135;28;20052;-82
2023/09/25 01:31:15;;;;;;;5.03;3.28;;;;;;;20.83;57.90;95022.56;5085783;28;20059;-82
2023/09/25 01:33:41;;;;;;;7.50;3.92;;;;;;;20.83;58.16;95033.75;5084893;28;20078;-82
2023/09/25 01:36:06;;;;;;;9.70;4.07;;;;;;;20.77;58.19;95032.94;5068754;28;20130;-83
2023/09/25 01:38:32;;;;;;;9.95;4.28;;;;;;;20.78;57.90;95040.06;5069626;28;20100;-83
2023/09/25 01:40:57;;;;;;;8.07;4.05;;;;;;;20.73;58.15;95041.56;5087491;28;20023;-81
2023/09/25 01:43:23;;;;;;;7.65;3.85;;;;;;;20.69;58.14;95044.56;5085798;28;20094;-82
2023/09/25 01:45:48;;;;;;;5.95;3.65;;;;;;;20.63;58.33;95045.81;5067373;28;20043;-81
2023/09/25 01:48:13;;;;;;;7.90;4.20;;;;;;;20.58;58.00;95049.34;5085632;28;20043;-80
2023/09/25 01:50:39;;;;;;;6.88;4.28;;;;;;;20.48;58.40;95046.03;5084262;28;20071;-81
2023/09/25 01:53:04;;;;;;;6.70;3.72;;;;;;;20.41;58.22;95041.66;5068380;28;20016;-82
2023/09/25 01:55:34;;;;;;;7.55;4.22;;;;;;;20.43;58.40;95043.94;5084298;28;20039;-82
2023/09/25 01:57:59;;;;;;;4.88;3.17;;;;;;;20.38;58.18;95036.28;5083640;28;20426;-82
2023/09/25 02:00:25;;;;;;;11.63;3.78;;;;;;;20.40;58.48;95047.69;5084979;28;20031;-82
2023/09/25 02:02:50;;;;;;;9.00;3.97;;;;;;;20.40;57.90;95056.84;5067695;28;20035;-82
2023/09/25 02:05:16;;;;;;;7.72;3.40;;;;;;;20.29;57.96;95056.00;5051721;28;20048;-82
2023/09/25 02:07:41;;;;;;;8.90;4.40;;;;;;;20.17;58.50;95055.94;5085337;28;20386;-82
2023/09/25 02:10:07;;;;;;;8.02;3.58;;;;;;;20.08;58.63;95052.59;5085032;28;20439;-81
2023/09/25 02:12:33;;;;;;;9.55;3.35;;;;;;;20.04;58.17;95058.38;5067020;28;20100;-82
2023/09/25 02:15:00;;;;;;;7.22;3.70;;;;;;;19.93;58.10;95068.69;5067909;28;20035;-82
2023/09/25 02:17:29;;;;;;;9.35;4.18;;;;;;;19.89;58.26;95069.69;5067308;28;20024;-81
2023/09/25 02:19:55;;;;;;;10.25;3.42;;;;;;;19.88;58.07;95078.56;5068084;28;20027;-82
2023/09/25 02:22:20;;;;;;;6.57;3.85;;;;;;;19.92;57.64;95067.19;5065549;28;20542;-82
2023/09/25 02:24:45;;;;;;;13.20;3.97;;;;;;;19.87;57.99;95071.44;5083359;28;20039;-82
2023/09/25 02:27:11;;;;;;;7.35;3.58;;;;;;;19.95;57.18;95075.31;5083583;28;20047;-82
2023/09/25 02:29:36;;;;;;;6.38;3.28;;;;;;;19.87;57.41;95066.63;5082355;28;20035;-80
2023/09/25 02:32:02;;;;;;;8.80;3.22;;;;;;;19.84;56.87;95069.63;5082674;28;20043;-82
2023/09/25 02:34:27;;;;;;;5.82;3.33;;;;;;;19.85;56.71;95077.53;5082992;28;20058;-83
2023/09/25 02:36:52;;;;;;;4.88;3.83;;;;;;;19.75;56.70;95075.41;5083884;28;20039;-82
2023/09/25 02:39:18;;;;;;;11.18;3.50;;;;;;;19.77;57.05;95081.25;5083817;28;20093;-82
2023/09/25 02:41:44;;;;;;;5.47;3.95;;;;;;;19.72;56.98;95093.88;5081889;28;20417;-82
2023/09/25 02:44:09;;;;;;;7.70;3.65;;;;;;;19.68;56.90;95087.00;5083660;28;20035;-82
2023/09/25 02:46:34;;;;;;;5.80;3.95;;;;;;;19.66;57.07;95076.31;5085029;28;20036;-83
2023/09/25 02:49:00;;;;;;;6.53;3.78;;;;;;;19.61;56.77;95093.75;5084937;28;20032;-83
2023/09/25 02:51:25;;;;;;;7.30;3.45;;;;;;;19.57;57.31;95084.84;5065085;28;20043;-83
2023/09/25 02:53:52;;;;;;;8.40;3.53;;;;;;;19.71;57.53;95097.16;5065641;28;20024;-83
2023/09/25 02:56:17;;;;;;;6.43;3.60;;;;;;;19.69;57.14;95100.44;5067502;28;20032;-83
2023/09/25 02:58:44;;;;;;;6.63;3.33;;;;;;;19.68;57.19;95092.59;5083035;28;20050;-82
2023/09/25 03:01:09;;;;;;;7.50;3.90;;;;;;;19.62;57.17;95112.06;5075121;28;20024;-83
2023/09/25 03:03:34;;;;;;;5.45;3.22;;;;;;;19.55;57.25;95110.41;5065291;28;20098;-83
2023/09/25 03:06:00;;;;;;;5.70;4.18;;;;;;;19.59;57.40;95107.44;5080877;28;20047;-84
2023/09/25 03:08:25;;;;;;;7.70;3.97;;;;;;;19.50;57.64;95110.38;5076645;28;20036;-82
2023/09/25 03:10:51;;;;;;;6.25;3.97;;;;;;;19.52;57.79;95119.00;5086535;28;20051;-83
2023/09/25 03:13:16;;;;;;;6.32;4.05;;;;;;;19.48;57.88;95112.88;5086843;28;20543;-83
2023/09/25 03:16:00;;;;;;;5.75;3.88;;;;;;;19.47;57.86;95123.25;5070572;28;20024;-83
2023/09/25 03:18:26;;;;;;;5.95;3.97;;;;;;;19.54;57.94;95119.28;5074049;28;20119;-83
2023/09/25 03:20:51;;;;;;;5.63;3.95;;;;;;;19.55;58.34;95124.34;5083951;28;20035;-83
2023/09/25 03:23:16;;;;;;;5.45;3.40;;;;;;;19.59;58.11;95129.75;5088768;28;20067;-82
2023/09/25 03:25:42;;;;;;;7.18;3.97;;;;;;;19.65;58.15;95133.38;5057684;28;20060;-82
2023/09/25 03:28:08;;;;;;;6.03;4.20;;;;;;;19.66;58.17;95134.88;5086086;28;20051;-82
2023/09/25 03:30:33;;;;;;;8.77;4.00;;;;;;;19.70;58.22;95126.31;5069329;28;20079;-82
2023/09/25 03:32:58;;;;;;;7.13;3.85;;;;;;;19.71;57.99;95123.03;5069355;28;20024;-82
2023/09/25 03:35:24;;;;;;;7.50;3.97;;;;;;;19.71;58.14;95127.84;5068119;28;20440;-83
2023/09/25 03:37:50;;;;;;;8.80;4.22;;;;;;;19.75;57.83;95128.41;5086083;28;20081;-85
2023/09/25 03:40:15;;;;;;;9.02;3.85;;;;;;;19.87;57.82;95130.03;5071942;28;20039;-85
2023/09/25 03:42:41;;;;;;;6.75;3.78;;;;;;;19.84;57.87;95128.22;5068773;28;20042;-84
2023/09/25 03:45:08;;;;;;;7.32;3.83;;;;;;;19.93;57.68;95136.41;5087222;28;20020;-85
2023/09/25 03:47:34;;;;;;;7.90;4.43;;;;;;;19.94;57.53;95137.19;5086606;28;20032;-85
2023/09/25 03:50:00;;;;;;;7.22;4.40;;;;;;;19.87;57.92;95141.19;5066481;28;20032;-84
2023/09/25 03:52:26;;;;;;;10.27;4.80;;;;;;;19.79;58.35;95135.28;5066808;28;20055;-86
2023/09/25 03:54:51;;;;;;;5.72;4.32;;;;;;;19.80;58.81;95142.41;5085254;28;20076;-84
2023/09/25 03:57:16;;;;;;;9.43;4.38;;;;;;;19.81;58.42;95143.91;5069258;28;20036;-86
2023/09/25 03:59:42;;;;;;;8.77;5.15;;;;;;;19.77;58.13;95137.78;5087619;28;20220;-84
2023/09/25 04:02:07;;;;;;;8.65;4.78;;;;;;;19.70;58.64;95138.22;5086829;28;20036;-85
2023/09/25 04:04:33;;;;;;;8.02;4.32;;;;;;;19.71;58.59;95142.53;5067787;28;20027;-87
2023/09/25 04:06:58;;;;;;;8.85;5.10;;;;;;;19.77;58.75;95142.59;5068839;28;20029;-84
2023/09/25 04:09:23;;;;;;;7.13;4.88;;;;;;;19.66;59.29;95136.91;5084638;28;20516;-83
2023/09/25 04:11:50;;;;;;;6.70;4.97;;;;;;;19.68;58.84;95143.53;5085321;28;20499;-82
2023/09/25 04:14:15;;;;;;;10.48;5.97;;;;;;;19.66;58.83;95139.69;5085452;28;20039;-83
2023/09/25 04:16:41;;;;;;;10.02;5.95;;;;;;;19.68;59.18;95149.13;5083211;28;20032;-83
2023/09/25 04:19:06;;;;;;;7.70;5.95;;;;;;;19.64;58.38;95145.78;5084893;28;20027;-83
2023/09/25 04:21:32;;;;;;;8.05;5.32;;;;;;;19.57;59.04;95146.94;5065408;28;20036;-84
2023/09/25 04:24:00;;;;;;;7.22;5.82;;;;;;;19.55;59.15;95157.81;5083980;28;20031;-83
2023/09/25 04:26:25;;;;;;;10.35;5.88;;;;;;;19.57;59.25;95154.56;5067695;28;20382;-84
2023/09/25 04:28:51;;;;;;;9.80;5.85;;;;;;;19.52;59.46;95161.59;5068335;28;20498;-83
2023/09/25 04:31:16;;;;;;;9.55;5.90;;;;;;;19.50;59.54;95158.53;5085465;28;20077;-85
2023/09/25 04:33:42;;;;;;;10.68;6.25;;;;;;;19.46;59.54;95166.34;5084749;28;20103;-84
2023/09/25 04:36:10;;;;;;;8.48;5.82;;;;;;;19.47;59.85;95167.09;5084628;28;20031;-83
2023/09/25 04:38:36;;;;;;;6.03;5.22;;;;;;;19.52;59.64;95169.19;5084295;28;20036;-84
2023/09/25 04:41:05;;;;;;;11.75;6.40;;;;;;;19.50;59.61;95166.16;5085813;28;20032;-86
2023/09/25 04:43:32;;;;;;;8.85;6.28;;;;;;;19.63;59.85;95175.69;5068302;28;20032;-86
2023/09/25 04:45:58;;;;;;;10.15;6.55;;;;;;;19.63;59.98;95166.56;5077884;28;20024;-88
2023/09/25 04:48:24;;;;;;;9.88;6.78;;;;;;;19.63;60.19;95178.47;5074565;28;20038;-92
2023/09/25 04:50:49;;;;;;;6.95;6.25;;;;;;;19.60;60.20;95170.31;5090327;28;20020;-94
2023/09/25 04:53:14;;;;;;;9.38;6.35;;;;;;;19.62;60.41;95176.19;5072027;28;20375;-94
2023/09/25 04:55:40;;;;;;;9.32;6.78;;;;;;;19.67;60.42;95178.28;5071091;28;20063;-94
2023/09/25 04:58:06;;;;;;;10.13;6.97;;;;;;;19.56;60.51;95169.75;5071400;28;20452;-91
2023/09/25 05:00:32;;;;;;;9.35;6.85;;;;;;;19.64;60.30;95179.25;5088131;28;20153;-92
2023/09/25 05:02:58;;;;;;;8.43;7.53;;;;;;;19.58;60.61;95178.38;5087957;28;20057;-92
2023/09/25 05:05:24;;;;;;;11.00;7.97;;;;;;;19.55;60.88;95179.34;5070544;28;20185;-93
2023/09/25 05:07:51;;;;;;;12.18;7.88;;;;;;;19.60;61.09;95184.25;5087252;28;20434;-90
2023/09/25 05:10:25;;;;;;;9.82;8.00;;;;;;;19.66;60.42;95190.66;5068026;28;20039;-83
2023/09/25 05:12:51;;;;;;;12.27;8.60;;;;;;;19.67;60.81;95183.84;5084584;28;20036;-81
2023/09/25 05:15:17;;;;;;;12.35;7.45;;;;;;;19.63;60.48;95181.25;5067964;28;20020;-84
2023/09/25 05:17:43;;;;;;;13.18;8.05;;;;;;;19.62;60.44;95190.13;5068278;28;20421;-83
2023/09/25 05:20:15;;;;;;;14.45;7.40;;;;;;;19.63;61.03;95195.22;5069180;28;20490;-83
2023/09/25 05:22:48;;;;;;;8.07;6.22;;;;;;;19.55;60.92;95198.88;5085089;28;20035;-83
2023/09/25 05:25:15;;;;;;;10.85;6.50;;;;;;;19.67;60.21;95199.78;5068562;28;20441;-84
2023/09/25 05:27:43;;;;;;;8.02;5.18;;;;;;;19.61;60.04;95200.53;5084495;28;20052;-82
2023/09/25 05:30:10;;;;;;;8.07;4.90;;;;;;;19.57;59.86;95196.38;5068190;28;20027;-82
2023/09/25 05:32:39;;;;;;;7.05;5.38;;;;;;;19.53;60.04;95198.59;5084304;28;20135;-83
2023/09/25 05:35:05;;;;;;;7.00;5.03;;;;;;;19.51;60.12;95201.88;5084885;28;20020;-84
2023/09/25 05:37:31;;;;;;;9.43;4.90;;;;;;;19.55;59.81;95205.22;5085800;28;20028;-82
2023/09/25 05:39:56;;;;;;;7.35;4.93;;;;;;;19.56;59.79;95203.97;5083417;28;20028;-83
2023/09/25 05:42:22;;;;;;;5.43;3.92;;;;;;;19.56;59.96;95206.75;5085679;28;20148;-83
2023/09/25 05:44:47;;;;;;;9.73;5.22;;;;;;;19.59;59.93;95213.41;5084656;28;20698;-82
2023/09/25 05:47:12;;;;;;;10.30;6.28;;;;;;;19.56;59.81;95219.94;5084878;28;20032;-83
2023/09/25 05:49:38;;;;;;;10.32;5.50;;;;;;;19.54;59.93;95226.00;5084866;28;20397;-83
2023/09/25 05:52:04;;;;;;;9.13;5.53;;;;;;;19.61;59.88;95222.81;5086034;28;20486;-83
2023/09/25 05:54:31;;;;;;;8.48;5.78;;;;;;;19.54;59.84;95211.28;5084890;28;20115;-83
2023/09/25 05:56:56;;;;;;;8.63;5.47;;;;;;;19.54;60.38;95208.50;5084192;28;20038;-83
2023/09/25 05:59:21;;;;;;;12.48;6.85;;;;;;;19.62;60.06;95218.00;5068386;28;20016;-83
2023/09/25 06:01:47;;;;;;;8.48;6.07;;;;;;;19.62;60.10;95213.19;5067172;28;20024;-83
2023/09/25 06:04:12;;;;;;;8.48;6.50;;;;;;;19.67;60.17;95217.31;5084051;28;20137;-82
2023/09/25 06:06:38;;;;;;;11.07;6.93;;;;;;;19.70;59.77;95221.91;5084064;28;20115;-83
2023/09/25 06:09:08;;;;;;;11.57;6.93;;;;;;;19.75;59.70;95220.44;5067732;28;20043;-83
2023/09/25 06:11:38;;;;;;;13.85;7.90;;;;;;;19.77;60.01;95220.69;5085436;28;20024;-83
2023/09/25 06:14:04;;;;;;;10.48;7.35;;;;;;;19.84;59.77;95228.63;5086296;28;20020;-83
2023/09/25 06:16:33;;;;;;;10.93;7.05;;;;;;;19.94;59.91;95224.44;5085338;28;20036;-83
2023/09/25 06:18:58;;;;;;;10.77;8.60;;;;;;;20.01;59.70;95223.22;5084205;28;20092;-83
2023/09/25 06:21:24;;;;;;;14.25;8.10;;;;;;;20.13;59.90;95222.09;5086106;28;20036;-81
2023/09/25 06:23:50;;;;;;;11.50;8.13;;;;;;;20.20;59.40;95227.25;5084245;28;20093;-83
2023/09/25 06:26:15;;;;;;;13.10;8.85;;;;;;;20.29;59.16;95229.84;5084788;28;20371;-83
2023/09/25 06:28:42;;;;;;;14.52;9.30;;;;;;;20.41;59.04;95236.28;5085267;28;20044;-82
2023/09/25 06:31:07;;;;;;;13.88;8.82;;;;;;;20.45;58.64;95228.47;5084643;28;20017;-82
2023/09/25 06:33:33;;;;;;;15.73;9.75;;;;;;;20.62;58.47;95242.59;5085684;28;20039;-82
2023/09/25 06:35:58;;;;;;;15.75;9.43;;;;;;;20.64;58.23;95237.25;5083886;28;20409;-81
2023/09/25 06:38:24;;;;;;;10.57;8.43;;;;;;;20.70;58.12;95246.44;5084823;28;20055;-82
2023/09/25 06:40:49;;;;;;;13.15;9.80;;;;;;;20.86;57.98;95253.44;5066884;28;20020;-83
2023/09/25 06:43:15;;;;;;;11.32;8.70;;;;;;;20.91;57.46;95256.28;5067935;28;20492;-82
2023/09/25 06:45:40;;;;;;;13.25;8.38;;;;;;;20.98;57.10;95262.66;5089569;28;20016;-82
2023/09/25 06:48:06;;;;;;;12.93;9.05;;;;;;;21.06;57.13;95264.50;5088427;28;20063;-82
2023/09/25 06:50:31;;;;;;;11.60;8.10;;;;;;;21.11;56.68;95263.78;5088009;28;20124;-82
2023/09/25 06:52:58;;;;;;;10.55;8.60;;;;;;;21.09;56.78;95265.53;5087761;28;20031;-82
2023/09/25 06:55:23;;;;;;;14.88;9.07;;;;;;;21.14;56.47;95262.78;5088721;28;20035;-82
2023/09/25 06:57:50;;;;;;;9.65;8.65;;;;;;;21.10;56.30;95261.47;5070800;28;20016;-81
2023/09/25 07:00:17;;;;;;;11.55;8.82;;;;;;;21.23;56.71;95261.81;5088324;28;20466;-81
2023/09/25 07:02:43;;;;;;;11.48;8.40;;;;;;;21.37;56.54;95263.69;5087646;28;20035;-80
2023/09/25 07:05:09;;;;;;;13.30;9.48;;;;;;;21.41;55.60;95275.41;5088546;28;20024;-80
2023/09/25 07:07:36;;;;;;;14.38;9.13;;;;;;;21.54;55.58;95263.78;5087471;28;20043;-80
2023/09/25 07:10:06;;;;;;;12.02;9.13;;;;;;;21.71;55.35;95266.66;5071213;28;20036;-80
2023/09/25 07:12:33;;;;;;;12.50;8.32;;;;;;;21.73;54.41;95272.50;5088453;28;20656;-80
2023/09/25 07:15:02;;;;;;;14.52;9.57;;;;;;;21.66;54.47;95276.56;5070544;28;20061;-81
2023/09/25 07:17:28;;;;;;;11.00;8.45;;;;;;;21.69;54.84;95272.00;5071354;28;20379;-81
2023/09/25 07:19:57;;;;;;;12.95;9.55;;;;;;;21.72;53.52;95263.34;5070378;28;20146;-81
2023/09/25 07:22:24;;;;;;;13.20;8.80;;;;;;;21.76;53.79;95265.91;5071591;28;20024;-81
2023/09/25 07:24:50;;;;;;;14.00;9.43;;;;;;;21.90;53.41;95264.19;5087534;28;20095;-81
2023/09/25 07:27:16;;;;;;;11.18;7.90;;;;;;;22.01;52.14;95273.38;5070276;28;20044;-79
2023/09/25 07:29:42;;;;;;;13.15;9.35;;;;;;;22.08;52.94;95265.75;5071040;28;20139;-79
2023/09/25 07:32:08;;;;;;;12.60;9.38;;;;;;;22.22;52.45;95273.97;5087404;28;20027;-79
2023/09/25 07:34:33;;;;;;;12.57;9.13;;;;;;;22.38;52.27;95271.72;5088105;28;20027;-79
2023/09/25 07:37:00;;;;;;;9.73;8.25;;;;;;;22.52;52.60;95276.31;5087145;28;20504;-79
2023/09/25 07:39:26;;;;;;;12.27;8.98;;;;;;;22.62;51.52;95276.84;5070386;28;20016;-80
2023/09/25 07:41:52;;;;;;;11.77;9.07;;;;;;;22.81;51.40;95272.25;5087295;28;20038;-80
2023/09/25 07:44:18;;;;;;;11.93;8.70;;;;;;;22.92;50.23;95275.06;5089123;28;20055;-80
2023/09/25 07:46:47;;;;;;;11.73;8.55;;;;;;;23.02;50.31;95270.75;5086987;28;20020;-79
2023/09/25 07:49:13;;;;;;;12.45;9.25;;;;;;;23.05;48.96;95274.56;5088715;28;20049;-80
2023/09/25 07:51:39;;;;;;;14.15;8.70;;;;;;;23.09;48.69;95275.06;5087363;28;20032;-80
2023/09/25 07:54:04;;;;;;;13.93;8.23;;;;;;;23.19;48.47;95281.19;5086742;28;20028;-79
2023/09/25 07:56:30;;;;;;;13.27;9.10;;;;;;;23.31;49.13;95279.88;5088200;28;20380;-80
2023/09/25 07:58:55;;;;;;;12.48;8.95;;;;;;;23.52;48.90;95283.16;5088027;28;20035;-80
2023/09/25 08:01:22;;;;;;;12.13;8.43;;;;;;;23.62;47.11;95267.56;5087196;28;20028;-80
2023/09/25 08:03:51;;;;;;;12.07;8.65;;;;;;;23.65;46.00;95277.78;5088203;28;20047;-80
2023/09/25 08:06:19;;;;;;;12.13;8.75;;;;;;;23.49;46.49;95270.91;5087066;28;20485;-81
2023/09/25 08:08:45;;;;;;;13.82;8.75;;;;;;;23.53;46.78;95273.47;5088555;28;20032;-80
2023/09/25 08:11:10;;;;;;;13.05;9.05;;;;;;;23.55;46.96;95268.84;5086747;28;20032;-79
2023/09/25 08:13:35;;;;;;;16.63;8.85;;;;;;;23.54;46.63;95267.31;5086785;28;20039;-79
2023/09/25 08:16:05;;;;;;;12.20;9.15;;;;;;;23.63;47.09;95268.34;5087890;28;20039;-79
2023/09/25 08:18:30;;;;;;;11.55;8.10;;;;;;;23.63;46.50;95269.13;5087122;28;20063;-79
2023/09/25 08:20:56;;;;;;;11.40;7.97;;;;;;;23.65;45.80;95260.94;5086642;28;20158;-79
2023/09/25 08:23:21;;;;;;;10.88;7.70;;;;;;;23.67;45.73;95249.19;5088301;28;20032;-80
2023/09/25 08:25:46;;;;;;;10.60;6.80;;;;;;;23.73;45.80;95259.13;5087937;28;20040;-78
2023/09/25 08:28:14;;;;;;;12.60;6.15;;;;;;;23.78;45.72;95260.38;5087841;28;20040;-79
2023/09/25 08:30:40;;;;;;;7.88;6.03;;;;;;;23.87;46.02;95262.91;5086835;28;20085;-80
2023/09/25 08:33:05;;;;;;;9.43;5.40;;;;;;;23.79;45.12;95262.66;5085603;28;20024;-79
2023/09/25 08:35:31;;;;;;;10.55;6.05;;;;;;;23.81;45.24;95265.72;5088145;28;20046;-78
2023/09/25 08:37:56;;;;;;;6.40;5.03;;;;;;;23.81;45.19;95260.13;5086159;28;20116;-82
2023/09/25 08:40:21;;;;;;;6.90;5.22;;;;;;;23.70;45.36;95267.81;5069582;28;20117;-79
2023/09/25 08:42:48;;;;;;;6.65;5.25;;;;;;;23.64;45.27;95261.47;5069313;28;20643;-78
2023/09/25 08:45:15;;;;;;;8.68;5.50;;;;;;;23.71;44.88;95256.06;5086410;28;20016;-77
2023/09/25 08:47:41;;;;;;;9.18;5.40;;;;;;;23.62;45.74;95256.34;5069574;28;20041;-80
2023/09/25 08:50:08;;;;;;;9.25;4.93;;;;;;;23.67;45.45;95244.34;5085586;28;20157;-80
2023/09/25 08:52:34;;;;;;;6.57;4.65;;;;;;;23.71;45.23;95246.88;5087524;28;20429;-81
2023/09/25 08:54:59;;;;;;;8.07;5.13;;;;;;;23.78;45.43;95255.53;5085278;28;20023;-79
2023/09/25 08:57:24;;;;;;;8.35;5.30;;;;;;;23.78;44.67;95252.72;5069473;28;20020;-79
2023/09/25 08:59:50;;;;;;;5.88;4.32;;;;;;;23.77;44.45;95256.81;5085719;28;20111;-81
2023/09/25 09:02:16;;;;;;;7.38;4.60;;;;;;;23.91;44.24;95252.16;5087570;28;20474;-79
2023/09/25 09:04:42;;;;;;;8.60;5.00;;;;;;;24.09;44.12;95257.19;5086946;28;20035;-80
2023/09/25 09:07:09;;;;;;;8.13;4.70;;;;;;;24.10;43.81;95261.50;5084706;28;20033;-81
2023/09/25 09:09:35;;;;;;;6.63;3.72;;;;;;;24.11;43.60;95262.25;5086410;28;20028;-81
2023/09/25 09:12:01;;;;;;;7.20;4.70;;;;;;;24.10;44.05;95246.69;5085320;28;20036;-79
2023/09/25 09:14:42;;;;;;;7.53;4.35;;;;;;;24.12;44.06;95260.97;5086141;28;20036;-80
2023/09/25 09:17:11;;;;;;;5.63;3.92;;;;;;;24.10;44.00;95255.88;5085621;28;20020;-80
2023/09/25 09:19:50;;;;;;;8.02;4.70;;;;;;;24.13;44.32;95256.88;5085832;28;20024;-80
2023/09/25 09:22:18;;;;;;;9.15;4.05;;;;;;;24.16;44.35;95253.06;5085973;28;20410;-81
2023/09/25 09:24:44;;;;;;;6.28;4.57;;;;;;;24.28;44.45;95257.31;5068419;28;20533;-81
2023/09/25 09:27:11;;;;;;;7.88;4.63;;;;;;;24.32;44.70;95262.66;5068685;28;20040;-81
2023/09/25 09:29:38;;;;;;;8.10;4.65;;;;;;;24.29;44.49;95267.25;5068512;28;20039;-79
2023/09/25 09:32:05;;;;;;;6.50;3.88;;;;;;;24.32;44.27;95266.25;5068450;28;20039;-79
2023/09/25 09:34:31;;;;;;;4.93;3.30;;;;;;;24.41;43.60;95265.19;5085209;28;20026;-80
2023/09/25 09:36:56;;;;;;;6.05;3.70;;;;;;;24.44;44.00;95260.56;5068260;28;20099;-81
2023/09/25 09:39:25;;;;;;;5.00;3.63;;;;;;;24.59;43.31;95258.91;5068160;28;20032;-80
2023/09/25 09:41:51;;;;;;;7.05;4.25;;;;;;;24.78;43.00;95258.28;5085017;28;20032;-81
2023/09/25 09:44:17;;;;;;;7.28;4.10;;;;;;;25.07;42.97;95256.78;5068806;28;20050;-81
2023/09/25 09:46:46;;;;;;;5.97;4.22;;;;;;;25.48;42.00;95262.25;5067758;28;20042;-81
2023/09/25 09:49:15;;;;;;;5.13;3.10;;;;;;;25.67;40.76;95265.88;5068601;28;20028;-81
2023/09/25 09:51:43;;;;;;;7.60;3.30;;;;;;;25.87;40.80;95255.44;5067976;28;20480;-81
2023/09/25 09:54:13;;;;;;;5.55;3.45;;;;;;;26.65;39.26;95259.25;5085187;28;20093;-80
2023/09/25 09:56:40;;;;;;;6.20;3.80;;;;;;;27.52;37.77;95262.38;5086337;28;20035;-81
2023/09/25 09:59:06;;;;;;;6.63;3.25;;;;;;;28.68;35.76;95263.34;5067898;28;20062;-80
2023/09/25 10:01:34;;;;;;;5.72;2.85;;;;;;;28.71;34.87;95259.41;5086942;28;20112;-81
2023/09/25 10:04:03;;;;;;;6.47;3.17;;;;;;;28.71;34.29;95270.72;5085891;28;20028;-80
2023/09/25 10:06:29;;;;;;;4.50;3.30;;;;;;;29.09;33.16;95265.47;5068510;28;20077;-81
2023/09/25 10:08:59;;;;;;;5.47;3.92;;;;;;;29.61;32.45;95269.28;5084300;28;20059;-80
2023/09/25 10:11:25;;;;;;;4.13;2.72;;;;;;;29.96;31.73;95257.78;5068092;28;20443;-81
2023/09/25 10:13:55;;;;;;;4.75;2.60;;;;;;;29.93;31.91;95273.81;5084529;28;20030;-80
2023/09/25 10:16:20;;;;;;;6.53;3.15;;;;;;;29.65;32.20;95266.13;5084479;28;20534;-81
2023/09/25 10:18:46;;;;;;;5.45;2.95;;;;;;;29.31;32.67;95269.81;5084706;28;20115;-81
2023/09/25 10:21:16;;;;;;;4.40;3.53;;;;;;;29.16;33.04;95269.69;5084106;28;20137;-81
2023/09/25 10:23:54;;;;;;;8.90;4.95;;;;;;;29.28;33.26;95268.06;5068642;28;20106;-80
2023/09/25 10:26:21;;;;;;;6.43;2.92;;;;;;;29.09;33.58;95256.22;5067801;28;20030;-81
2023/09/25 10:29:10;;;;;;;5.13;3.22;;;;;;;29.05;33.60;95256.56;5084502;28;20272;-81
2023/09/25 10:31:37;;;;;;;6.07;3.60;;;;;;;29.54;33.23;95252.25;5085910;28;20044;-81
2023/09/25 10:34:07;;;;;;;7.88;4.28;;;;;;;30.30;32.02;95252.69;5067244;28;20123;-79
2023/09/25 10:36:39;;;;;;;6.63;3.90;;;;;;;30.84;30.48;95259.28;5084763;28;20046;-80
2023/09/25 10:39:07;;;;;;;5.78;3.88;;;;;;;31.45;30.52;95253.66;5083788;28;20494;-80
2023/09/25 10:41:32;;;;;;;6.95;3.60;;;;;;;31.73;29.23;95247.00;5084400;28;20406;-80
2023/09/25 10:43:58;;;;;;;5.78;3.00;;;;;;;31.66;29.46;95249.88;5085402;28;20028;-78
2023/09/25 10:46:25;;;;;;;9.60;4.50;;;;;;;31.74;30.00;95256.28;5084202;28;20028;-78
2023/09/25 10:48:50;;;;;;;7.97;3.35;;;;;;;31.14;30.52;95249.28;5085907;28;20032;-78
2023/09/25 10:51:16;;;;;;;8.80;4.00;;;;;;;30.68;31.27;95254.84;5083554;28;20024;-78
2023/09/25 10:53:43;;;;;;;7.50;3.50;;;;;;;30.23;32.04;95247.00;5067625;28;20305;-79
2023/09/25 10:56:11;;;;;;;6.35;4.60;;;;;;;29.91;32.47;95250.97;5083466;28;20429;-78
2023/09/25 10:58:37;;;;;;;6.05;3.03;;;;;;;29.83;32.69;95261.50;5084463;28;20028;-80
2023/09/25 11:01:04;;;;;;;9.15;5.18;;;;;;;29.77;32.62;95252.41;5083555;28;20652;-78
2023/09/25 11:03:30;;;;;;;6.63;4.47;;;;;;;29.57;34.94;95259.63;5084409;28;20508;-78
2023/09/25 11:05:55;;;;;;;5.85;4.18;;;;;;;29.05;36.02;95248.06;5085662;28;20021;-78
2023/09/25 11:08:21;;;;;;;11.30;5.60;;;;;;;28.77;36.94;95253.63;5083553;28;20055;-79
2023/09/25 11:10:47;;;;;;;12.68;7.13;;;;;;;28.41;37.31;95248.53;5085836;28;20124;-79
2023/09/25 11:13:13;;;;;;;11.93;7.30;;;;;;;28.16;37.74;95247.25;5083512;28;20399;-79
2023/09/25 11:15:39;;;;;;;11.85;7.40;;;;;;;28.05;38.10;95257.53;5084434;28;20016;-77
2023/09/25 11:18:09;;;;;;;7.43;5.78;;;;;;;27.85;38.09;95257.44;5083349;28;20036;-80
2023/09/25 11:20:37;;;;;;;8.48;5.93;;;;;;;27.59;38.89;95250.47;5084323;28;20031;-80
2023/09/25 11:23:11;;;;;;;7.82;5.03;;;;;;;27.44;38.96;95248.16;5083723;28;20100;-81
2023/09/25 11:25:44;;;;;;;8.60;5.38;;;;;;;27.35;39.29;95247.81;5066796;28;20021;-80